createdAt,value
2019-02-11T00:01:20.248Z,39.87
2019-02-11T00:03:59.580Z,39.53
2019-02-11T00:06:26.144Z,40.57
2019-02-11T00:08:58.754Z,40.10
2019-02-11T00:11:31.052Z,38.50
2019-02-11T00:14:02.692Z,40.33
2019-02-11T00:16:34.568Z,38.07
2019-02-11T00:19:06.862Z,40.57
2019-02-11T00:21:38.735Z,40.07
2019-02-11T00:24:10.641Z,37.47
2019-02-11T00:26:42.200Z,36.30
2019-02-11T00:29:14.655Z,41.00
2019-02-11T00:31:47.952Z,39.03
2019-02-11T00:34:19.645Z,38.03
2019-02-11T00:36:51.947Z,37.43
2019-02-11T00:39:23.378Z,36.70
2019-02-11T00:41:55.682Z,36.53
2019-02-11T00:44:27.795Z,36.80
2019-02-11T00:46:59.347Z,35.70
2019-02-11T00:49:31.000Z,35.97
2019-02-11T00:52:02.273Z,36.07
2019-02-11T00:54:33.571Z,36.47
2019-02-11T00:57:04.760Z,34.87
2019-02-11T00:59:36.436Z,34.27
2019-02-11T01:02:07.551Z,34.70
2019-02-11T01:04:39.221Z,36.67
2019-02-11T01:07:10.766Z,35.67
2019-02-11T01:09:42.208Z,36.10
2019-02-11T01:12:13.500Z,35.23
2019-02-11T01:14:44.464Z,36.77
2019-02-11T01:17:16.093Z,33.23
2019-02-11T01:19:47.528Z,33.53
2019-02-11T01:22:19.300Z,34.73
2019-02-11T01:24:51.171Z,34.07
2019-02-11T01:27:22.736Z,32.37
2019-02-11T01:30:13.405Z,32.20
2019-02-11T01:32:44.148Z,33.40
2019-02-11T01:35:16.115Z,34.87
2019-02-11T01:37:47.692Z,33.67
2019-02-11T01:40:18.413Z,33.67
2019-02-11T01:42:49.686Z,32.60
2019-02-11T01:45:20.848Z,33.43
2019-02-11T01:47:52.334Z,34.13
2019-02-11T01:50:23.648Z,32.90
2019-02-11T01:52:56.195Z,35.60
2019-02-11T01:55:27.723Z,33.20
2019-02-11T01:58:00.424Z,35.07
2019-02-11T02:00:31.954Z,34.07
2019-02-11T02:03:03.748Z,33.97
2019-02-11T02:05:35.038Z,33.07
2019-02-11T02:08:06.486Z,32.20
2019-02-11T02:10:38.465Z,32.50
2019-02-11T02:13:10.301Z,32.87
2019-02-11T02:15:42.273Z,30.13
2019-02-11T02:18:13.481Z,30.87
2019-02-11T02:20:44.586Z,32.43
2019-02-11T02:23:16.580Z,30.27
2019-02-11T02:25:47.763Z,30.37
2019-02-11T02:28:18.908Z,32.13
2019-02-11T02:30:49.840Z,32.13
2019-02-11T02:33:21.015Z,31.43
2019-02-11T02:35:51.922Z,30.90
2019-02-11T02:38:24.121Z,30.63
2019-02-11T02:40:55.214Z,30.63
2019-02-11T02:43:27.180Z,32.33
2019-02-11T02:45:58.104Z,31.67
2019-02-11T02:48:29.926Z,32.60
2019-02-11T02:51:00.690Z,31.47
2019-02-11T02:53:32.633Z,32.27
2019-02-11T02:56:05.682Z,30.30
2019-02-11T02:58:37.456Z,31.10
2019-02-11T03:01:09.177Z,29.30
2019-02-11T03:03:41.193Z,31.30
2019-02-11T03:06:12.655Z,30.63
2019-02-11T03:08:43.688Z,30.03
2019-02-11T03:11:15.233Z,32.23
2019-02-11T03:13:45.879Z,31.60
2019-02-11T03:16:17.363Z,32.17
2019-02-11T03:18:49.816Z,28.43
2019-02-11T03:21:20.701Z,31.73
2019-02-11T03:23:52.437Z,33.03
2019-02-11T03:26:23.921Z,30.07
2019-02-11T03:28:55.241Z,31.70
2019-02-11T03:31:26.680Z,32.70
2019-02-11T03:33:58.452Z,33.57
2019-02-11T03:36:29.427Z,33.70
2019-02-11T03:39:00.198Z,33.13
2019-02-11T03:41:31.487Z,32.60
2019-02-11T03:44:02.500Z,37.27
2019-02-11T03:46:33.405Z,34.70
2019-02-11T03:49:04.988Z,31.47
2019-02-11T03:51:36.069Z,33.83
2019-02-11T03:54:06.989Z,32.57
2019-02-11T03:56:37.963Z,31.10
2019-02-11T03:59:09.566Z,32.87
2019-02-11T04:01:41.134Z,34.57
2019-02-11T04:04:12.844Z,32.13
2019-02-11T04:06:45.905Z,34.10
2019-02-11T04:09:36.151Z,36.00
2019-02-11T04:12:07.958Z,36.10
2019-02-11T04:14:39.906Z,35.03
2019-02-11T04:17:11.147Z,35.40
2019-02-11T04:19:42.546Z,32.90
2019-02-11T04:22:14.056Z,32.47
2019-02-11T04:24:45.625Z,35.70
2019-02-11T04:27:17.242Z,36.40
2019-02-11T04:29:49.295Z,36.47
2019-02-11T04:32:20.639Z,36.23
2019-02-11T04:34:52.304Z,34.33
2019-02-11T04:37:25.002Z,34.87
2019-02-11T04:39:56.636Z,36.70
2019-02-11T04:42:28.048Z,35.90
2019-02-11T04:44:59.860Z,35.77
2019-02-11T04:47:32.023Z,34.63
2019-02-11T04:50:03.266Z,33.40
2019-02-11T04:52:35.996Z,36.83
2019-02-11T04:55:08.769Z,38.27
2019-02-11T04:57:42.011Z,37.80
2019-02-11T05:00:13.782Z,33.53
2019-02-11T05:02:46.045Z,34.03
2019-02-11T05:05:18.065Z,36.30
2019-02-11T05:07:49.906Z,32.70
2019-02-11T05:10:22.238Z,34.53
2019-02-11T05:12:54.362Z,31.27
2019-02-11T05:15:26.362Z,29.90
2019-02-11T05:17:58.132Z,29.20
2019-02-11T05:20:29.415Z,29.50
2019-02-11T05:23:00.028Z,29.53
2019-02-11T05:25:30.625Z,31.17
2019-02-11T05:28:01.332Z,29.27
2019-02-11T05:30:32.076Z,28.50
2019-02-11T05:33:02.806Z,30.47
2019-02-11T05:35:33.563Z,29.60
2019-02-11T05:38:04.127Z,29.20
2019-02-11T05:40:34.861Z,31.27
2019-02-11T05:43:05.375Z,30.67
2019-02-11T05:45:36.024Z,33.00
2019-02-11T05:48:08.133Z,35.50
2019-02-11T05:50:38.744Z,41.63
2019-02-11T05:53:09.298Z,46.97
2019-02-11T05:55:40.062Z,48.40
2019-02-11T05:58:10.696Z,49.10
2019-02-11T06:00:41.285Z,48.07
2019-02-11T06:03:11.913Z,50.70
2019-02-11T06:05:42.580Z,49.27
2019-02-11T06:08:13.093Z,51.40
2019-02-11T06:10:43.784Z,51.50
2019-02-11T06:13:14.414Z,51.23
2019-02-11T06:15:45.034Z,51.87
2019-02-11T06:18:15.781Z,50.87
2019-02-11T06:20:46.380Z,51.53
2019-02-11T06:23:16.901Z,53.23
2019-02-11T06:25:47.641Z,49.67
2019-02-11T06:28:18.340Z,48.60
2019-02-11T06:30:52.058Z,47.80
2019-02-11T06:33:22.953Z,48.10
2019-02-11T06:35:53.513Z,54.20
2019-02-11T06:38:24.162Z,52.40
2019-02-11T06:40:54.907Z,55.03
2019-02-11T06:43:25.460Z,59.87
2019-02-11T06:45:56.140Z,61.97
2019-02-11T06:48:26.777Z,61.33
2019-02-11T06:50:57.561Z,61.57
2019-02-11T06:53:28.123Z,62.93
2019-02-11T06:55:58.820Z,62.93
2019-02-11T06:58:30.113Z,62.53
2019-02-11T07:01:02.426Z,61.60
2019-02-11T07:03:33.414Z,59.57
2019-02-11T07:06:04.043Z,61.20
2019-02-11T07:08:36.142Z,62.50
2019-02-11T07:11:07.663Z,59.70
2019-02-11T07:13:38.383Z,57.73
2019-02-11T07:16:09.279Z,58.10
2019-02-11T07:18:40.094Z,57.87
2019-02-11T07:21:10.762Z,55.17
2019-02-11T07:23:41.361Z,60.73
2019-02-11T07:26:12.288Z,54.70
2019-02-11T07:28:43.092Z,53.70
2019-02-11T07:31:14.105Z,55.57
2019-02-11T07:33:46.532Z,53.97
2019-02-11T07:36:18.054Z,53.60
2019-02-11T07:38:48.887Z,52.23
2019-02-11T07:41:21.160Z,51.53
2019-02-11T07:44:20.110Z,52.40
2019-02-11T07:46:57.775Z,50.83
2019-02-11T07:49:28.487Z,45.17
2019-02-11T07:51:59.104Z,47.90
2019-02-11T07:54:30.446Z,45.50
2019-02-11T07:57:01.177Z,48.87
2019-02-11T07:59:32.579Z,48.70
2019-02-11T08:02:03.185Z,49.23
2019-02-11T08:04:33.721Z,48.53
2019-02-11T08:07:04.393Z,50.00
2019-02-11T08:09:36.243Z,47.40
2019-02-11T08:12:06.857Z,45.00
2019-02-11T08:14:37.545Z,49.20
2019-02-11T08:17:08.231Z,51.27
2019-02-11T08:19:38.795Z,51.40
2019-02-11T08:22:09.445Z,49.93
2019-02-11T08:24:40.092Z,49.70
2019-02-11T08:27:13.758Z,51.00
2019-02-11T08:29:46.163Z,49.43
2019-02-11T08:32:18.137Z,48.50
2019-02-11T08:34:49.114Z,47.13
2019-02-11T08:37:19.632Z,47.50
2019-02-11T08:39:51.813Z,49.57
2019-02-11T08:42:22.412Z,48.73
2019-02-11T08:44:53.231Z,52.03
2019-02-11T08:47:25.370Z,53.27
2019-02-11T08:49:56.188Z,52.87
2019-02-11T08:52:26.681Z,58.77
2019-02-11T08:54:57.456Z,56.73
2019-02-11T08:57:28.139Z,48.93
2019-02-11T08:59:58.816Z,66.13
2019-02-11T09:02:29.477Z,65.77
2019-02-11T09:05:00.112Z,70.70
2019-02-11T09:07:31.135Z,73.53
2019-02-11T09:10:01.803Z,68.53
2019-02-11T09:12:34.044Z,80.10
2019-02-11T09:15:05.620Z,79.00
2019-02-11T09:17:36.338Z,76.50
2019-02-11T09:20:08.324Z,81.00
2019-02-11T09:22:38.862Z,79.53
2019-02-11T09:25:10.187Z,88.07
2019-02-11T09:27:40.865Z,100.80
2019-02-11T09:30:13.814Z,90.43
2019-02-11T09:32:44.440Z,97.30
2019-02-11T09:35:15.158Z,91.67
2019-02-11T09:37:45.908Z,100.00
2019-02-11T09:40:16.989Z,88.17
2019-02-11T09:42:47.521Z,67.70
2019-02-11T09:45:20.280Z,71.60
2019-02-11T09:47:51.042Z,71.60
2019-02-11T09:50:30.564Z,77.50
2019-02-11T09:53:01.578Z,74.07
2019-02-11T09:55:33.684Z,80.10
2019-02-11T09:58:04.539Z,83.93
2019-02-11T10:00:35.242Z,79.77
2019-02-11T10:03:05.904Z,78.77
2019-02-11T10:05:36.597Z,70.37
2019-02-11T10:08:07.096Z,67.27
2019-02-11T10:10:37.788Z,65.50
2019-02-11T10:13:08.552Z,64.17
2019-02-11T10:15:39.120Z,61.00
2019-02-11T10:18:09.885Z,59.40
2019-02-11T10:20:40.655Z,56.50
2019-02-11T10:23:11.193Z,58.00
2019-02-11T10:25:41.736Z,56.97
2019-02-11T10:28:13.504Z,58.07
2019-02-11T10:30:44.248Z,56.83
2019-02-11T10:33:15.035Z,56.93
2019-02-11T10:35:46.011Z,58.50
2019-02-11T10:38:16.745Z,59.33
2019-02-11T10:40:47.434Z,57.60
2019-02-11T10:43:18.007Z,57.57
2019-02-11T10:45:48.579Z,54.67
2019-02-11T10:48:19.259Z,53.90
2019-02-11T10:50:50.068Z,51.97
2019-02-11T10:53:20.708Z,49.57
2019-02-11T10:55:51.532Z,49.23
2019-02-11T10:58:22.407Z,46.90
2019-02-11T11:00:53.110Z,46.47
2019-02-11T11:03:23.754Z,46.70
2019-02-11T11:05:54.364Z,43.97
2019-02-11T11:08:24.980Z,45.33
2019-02-11T11:10:55.644Z,43.80
2019-02-11T11:13:27.866Z,45.03
2019-02-11T11:15:58.545Z,44.23
2019-02-11T11:18:29.078Z,42.83
2019-02-11T11:20:59.713Z,43.30
2019-02-11T11:23:30.266Z,43.20
2019-02-11T11:26:00.787Z,41.87
2019-02-11T11:28:31.522Z,40.80
2019-02-11T11:31:02.123Z,37.80
2019-02-11T11:33:32.764Z,42.50
2019-02-11T11:36:03.381Z,43.40
2019-02-11T11:38:33.953Z,42.47
2019-02-11T11:41:05.117Z,43.13
2019-02-11T11:43:35.690Z,43.53
2019-02-11T11:46:06.455Z,38.00
2019-02-11T11:48:36.988Z,40.10
2019-02-11T11:51:07.734Z,40.47
2019-02-11T11:53:38.202Z,40.30
2019-02-11T11:56:08.770Z,37.40
2019-02-11T11:58:39.507Z,37.07
2019-02-11T12:01:10.247Z,35.57
2019-02-11T12:03:40.787Z,39.50
2019-02-11T12:06:11.399Z,40.60
2019-02-11T12:08:43.526Z,40.40
2019-02-11T12:11:14.200Z,40.50
2019-02-11T12:13:44.967Z,39.53
2019-02-11T12:16:15.708Z,38.90
2019-02-11T12:18:46.399Z,38.23
2019-02-11T12:21:17.066Z,37.60
2019-02-11T12:23:47.675Z,39.50
2019-02-11T12:26:21.296Z,38.20
2019-02-11T12:28:50.738Z,38.47
2019-02-11T12:31:21.260Z,36.47
2019-02-11T12:33:51.837Z,40.00
2019-02-11T12:36:22.411Z,37.23
2019-02-11T12:38:53.003Z,39.57
2019-02-11T12:41:23.615Z,38.87
2019-02-11T12:43:54.168Z,42.37
2019-02-11T12:46:24.795Z,42.03
2019-02-11T12:48:55.420Z,40.63
2019-02-11T12:51:26.203Z,41.23
2019-02-11T12:53:56.752Z,42.20
2019-02-11T12:56:27.554Z,42.73
2019-02-11T12:58:58.333Z,41.87
2019-02-11T13:01:29.023Z,41.77
2019-02-11T13:03:59.584Z,43.83
2019-02-11T13:06:30.356Z,42.83
2019-02-11T13:09:01.025Z,42.50
2019-02-11T13:11:33.907Z,39.60
2019-02-11T13:14:04.635Z,40.60
2019-02-11T13:16:35.271Z,41.93
2019-02-11T13:19:06.055Z,39.67
2019-02-11T13:21:36.563Z,40.00
2019-02-11T13:24:07.307Z,40.50
2019-02-11T13:26:38.012Z,39.83
2019-02-11T13:29:08.645Z,41.17
2019-02-11T13:31:39.256Z,39.97
2019-02-11T13:34:09.933Z,39.80
2019-02-11T13:36:40.467Z,39.10
2019-02-11T13:39:11.051Z,40.73
2019-02-11T13:41:41.771Z,39.33
2019-02-11T13:44:12.611Z,39.17
2019-02-11T13:46:43.341Z,39.70
2019-02-11T13:49:14.391Z,40.83
2019-02-11T13:51:45.013Z,41.50
2019-02-11T13:54:15.543Z,40.63
2019-02-11T13:56:46.299Z,42.70
2019-02-11T13:59:16.931Z,41.83
2019-02-11T14:01:47.639Z,41.07
2019-02-11T14:04:18.480Z,41.70
2019-02-11T14:06:49.483Z,47.00
2019-02-11T14:09:20.466Z,47.23
2019-02-11T14:11:51.399Z,45.63
2019-02-11T14:14:30.093Z,46.23
2019-02-11T14:17:00.938Z,46.60
2019-02-11T14:19:31.882Z,43.27
2019-02-11T14:22:02.409Z,45.20
2019-02-11T14:24:33.039Z,42.23
2019-02-11T14:27:04.147Z,45.17
2019-02-11T14:29:35.037Z,45.90
2019-02-11T14:32:08.523Z,43.57
2019-02-11T14:34:39.463Z,42.37
2019-02-11T14:37:10.795Z,43.53
2019-02-11T14:39:44.216Z,44.40
2019-02-11T14:42:15.486Z,65.53
2019-02-11T14:44:46.426Z,53.43
2019-02-11T14:47:17.266Z,47.93
2019-02-11T14:49:48.042Z,50.90
2019-02-11T14:52:18.783Z,51.53
2019-02-11T14:54:49.298Z,51.30
2019-02-11T14:57:19.932Z,53.43
2019-02-11T14:59:50.766Z,57.73
2019-02-11T15:02:21.322Z,57.80
2019-02-11T15:04:52.127Z,53.37
2019-02-11T15:07:22.822Z,54.70
2019-02-11T15:09:53.715Z,60.73
2019-02-11T15:12:24.351Z,66.60
2019-02-11T15:14:55.016Z,55.57
2019-02-11T15:17:27.185Z,53.73
2019-02-11T15:19:57.909Z,53.53
2019-02-11T15:22:28.463Z,55.53
2019-02-11T15:24:59.012Z,54.73
2019-02-11T15:27:29.559Z,53.20
2019-02-11T15:30:00.294Z,56.57
2019-02-11T15:32:30.847Z,56.23
2019-02-11T15:35:01.384Z,55.23
2019-02-11T15:37:31.954Z,55.83
2019-02-11T15:40:02.731Z,54.00
2019-02-11T15:42:33.298Z,53.30
2019-02-11T15:45:04.235Z,53.63
2019-02-11T15:47:34.889Z,56.67
2019-02-11T15:50:05.695Z,62.20
2019-02-11T15:52:36.470Z,59.93
2019-02-11T15:55:08.674Z,65.43
2019-02-11T15:57:39.999Z,72.13
2019-02-11T16:00:13.601Z,82.43
2019-02-11T16:02:44.280Z,87.10
2019-02-11T16:05:16.543Z,82.40
2019-02-11T16:07:47.765Z,85.37
2019-02-11T16:10:20.444Z,80.57
2019-02-11T16:12:51.445Z,84.20
2019-02-11T16:15:22.441Z,80.23
2019-02-11T16:17:53.277Z,74.97
2019-02-11T16:20:25.078Z,63.43
2019-02-11T16:22:56.063Z,66.03
2019-02-11T16:25:26.799Z,68.37
2019-02-11T16:27:58.073Z,67.67
2019-02-11T16:30:28.801Z,65.70
2019-02-11T16:32:59.432Z,59.73
2019-02-11T16:35:30.227Z,64.80
2019-02-11T16:38:00.833Z,66.57
2019-02-11T16:40:31.649Z,64.03
2019-02-11T16:43:02.267Z,61.60
2019-02-11T16:45:32.899Z,58.47
2019-02-11T16:48:03.839Z,63.07
2019-02-11T16:50:34.622Z,62.90
2019-02-11T16:53:05.379Z,61.10
2019-02-11T16:55:36.042Z,60.57
2019-02-11T16:58:06.803Z,59.43
2019-02-11T17:00:37.603Z,58.07
2019-02-11T17:03:08.221Z,58.13
2019-02-11T17:05:40.190Z,58.73
2019-02-11T17:08:10.838Z,56.27
2019-02-11T17:10:41.512Z,55.33
2019-02-11T17:13:12.284Z,55.07
2019-02-11T17:15:42.970Z,53.37
2019-02-11T17:18:13.680Z,51.53
2019-02-11T17:20:44.462Z,52.90
2019-02-11T17:23:14.998Z,51.47
2019-02-11T17:25:45.566Z,51.83
2019-02-11T17:28:16.447Z,52.57
2019-02-11T17:30:47.227Z,51.77
2019-02-11T17:33:17.906Z,51.67
2019-02-11T17:35:48.671Z,49.03
2019-02-11T17:38:19.459Z,48.27
2019-02-11T17:40:50.643Z,52.43
2019-02-11T17:43:21.301Z,66.67
2019-02-11T17:45:53.067Z,65.23
2019-02-11T17:48:33.074Z,73.83
2019-02-11T17:51:05.486Z,80.50
2019-02-11T17:53:38.088Z,64.10
2019-02-11T17:56:10.909Z,60.33
2019-02-11T17:58:42.612Z,81.13
2019-02-11T18:01:16.713Z,67.17
2019-02-11T18:03:58.440Z,70.30
2019-02-11T18:06:42.740Z,96.03
2019-02-11T18:09:46.457Z,92.17
2019-02-11T18:12:22.228Z,91.17
2019-02-11T18:14:54.451Z,87.43
2019-02-11T18:17:27.181Z,88.27
2019-02-11T18:20:15.161Z,97.60
2019-02-11T18:22:49.500Z,95.53
2019-02-11T18:25:50.212Z,80.63
2019-02-11T18:28:24.979Z,74.23
2019-02-11T18:31:17.395Z,77.67
2019-02-11T18:33:49.911Z,81.53
2019-02-11T18:36:22.300Z,80.40
2019-02-11T18:38:54.540Z,74.57
2019-02-11T18:41:26.480Z,72.70
2019-02-11T18:43:59.562Z,75.67
2019-02-11T18:46:31.412Z,73.63
2019-02-11T18:49:03.144Z,71.07
2019-02-11T18:51:35.157Z,69.97
2019-02-11T18:54:07.069Z,67.57
2019-02-11T18:56:38.556Z,65.13
2019-02-11T18:59:10.647Z,66.53
2019-02-11T19:01:41.165Z,67.43
2019-02-11T19:04:16.486Z,70.50
2019-02-11T19:06:48.318Z,74.97
2019-02-11T19:09:21.049Z,73.33
2019-02-11T19:11:53.414Z,76.93
2019-02-11T19:14:25.157Z,73.00
2019-02-11T19:16:55.765Z,78.60
2019-02-11T19:19:26.853Z,78.63
2019-02-11T19:21:57.506Z,73.07
2019-02-11T19:24:28.306Z,72.57
2019-02-11T19:26:58.935Z,72.10
2019-02-11T19:29:30.076Z,73.07
2019-02-11T19:32:00.987Z,67.77
2019-02-11T19:34:31.662Z,66.30
2019-02-11T19:37:02.420Z,71.20
2019-02-11T19:39:33.048Z,71.40
2019-02-11T19:42:03.722Z,72.10
2019-02-11T19:44:34.304Z,71.57
2019-02-11T19:47:05.753Z,69.27
2019-02-11T19:49:36.692Z,72.23
2019-02-11T19:52:07.490Z,69.97
2019-02-11T19:54:38.067Z,68.80
2019-02-11T19:57:08.656Z,70.07
2019-02-11T19:59:39.325Z,74.43
2019-02-11T20:02:09.999Z,79.23
2019-02-11T20:04:40.563Z,73.40
2019-02-11T20:07:11.214Z,71.37
2019-02-11T20:09:41.879Z,91.20
2019-02-11T20:12:12.517Z,73.07
2019-02-11T20:14:43.323Z,73.27
2019-02-11T20:17:13.965Z,70.33
2019-02-11T20:19:44.593Z,70.37
2019-02-11T20:22:15.225Z,72.20
2019-02-11T20:24:46.240Z,70.60
2019-02-11T20:27:16.803Z,75.63
2019-02-11T20:29:47.479Z,71.27
2019-02-11T20:32:18.208Z,76.73
2019-02-11T20:34:48.987Z,74.80
2019-02-11T20:37:20.021Z,76.20
2019-02-11T20:39:50.787Z,75.53
2019-02-11T20:42:21.984Z,80.77
2019-02-11T20:44:52.621Z,78.60
2019-02-11T20:47:23.493Z,65.60
2019-02-11T20:49:54.077Z,64.03
2019-02-11T20:52:24.690Z,67.90
2019-02-11T20:54:55.387Z,67.50
2019-02-11T20:57:25.966Z,64.10
2019-02-11T20:59:56.665Z,64.37
2019-02-11T21:02:27.288Z,62.83
2019-02-11T21:04:57.875Z,62.20
2019-02-11T21:07:28.730Z,65.47
2019-02-11T21:09:59.325Z,63.23
2019-02-11T21:12:30.113Z,63.30
2019-02-11T21:15:19.685Z,58.10
2019-02-11T21:17:51.105Z,60.90
2019-02-11T21:20:28.276Z,61.90
2019-02-11T21:22:59.061Z,62.30
2019-02-11T21:25:29.730Z,63.40
2019-02-11T21:28:00.349Z,68.60
2019-02-11T21:30:31.193Z,65.67
2019-02-11T21:33:01.830Z,72.50
2019-02-11T21:35:32.710Z,62.57
2019-02-11T21:38:03.566Z,64.50
2019-02-11T21:40:34.261Z,66.33
2019-02-11T21:43:05.032Z,61.90
2019-02-11T21:45:35.601Z,62.57
2019-02-11T21:48:06.245Z,63.37
2019-02-11T21:50:37.000Z,62.33
2019-02-11T21:53:07.586Z,60.63
2019-02-11T21:55:38.123Z,61.67
2019-02-11T21:58:08.748Z,64.63
2019-02-11T22:00:39.318Z,63.30
2019-02-11T22:03:09.836Z,62.73
2019-02-11T22:05:40.417Z,62.20
2019-02-11T22:08:11.065Z,62.00
2019-02-11T22:10:41.621Z,59.03
2019-02-11T22:13:12.225Z,60.00
2019-02-11T22:15:42.842Z,61.57
2019-02-11T22:18:13.418Z,59.30
2019-02-11T22:20:44.019Z,59.70
2019-02-11T22:23:15.685Z,62.03
2019-02-11T22:25:46.226Z,59.33
2019-02-11T22:28:16.779Z,57.47
2019-02-11T22:30:47.340Z,62.33
2019-02-11T22:33:17.939Z,61.47
2019-02-11T22:35:48.627Z,66.50
2019-02-11T22:38:19.294Z,63.20
2019-02-11T22:40:49.857Z,61.57
2019-02-11T22:43:20.466Z,58.70
2019-02-11T22:45:51.099Z,63.43
2019-02-11T22:48:21.678Z,67.40
2019-02-11T22:50:52.361Z,70.00
2019-02-11T22:53:22.921Z,64.60
2019-02-11T22:55:53.457Z,69.17
2019-02-11T22:58:24.250Z,67.20
2019-02-11T23:01:01.392Z,69.77
2019-02-11T23:03:32.060Z,59.30
2019-02-11T23:06:02.801Z,62.03
2019-02-11T23:08:33.414Z,62.83
2019-02-11T23:11:03.991Z,59.43
2019-02-11T23:13:34.552Z,75.87
2019-02-11T23:16:05.217Z,75.27
2019-02-11T23:18:35.845Z,76.97
2019-02-11T23:21:06.618Z,78.97
2019-02-11T23:23:37.116Z,81.40
2019-02-11T23:26:07.717Z,70.97
2019-02-11T23:28:38.314Z,81.63
2019-02-11T23:31:08.912Z,48.50
2019-02-11T23:33:39.710Z,61.77
2019-02-11T23:36:10.399Z,54.17
2019-02-11T23:38:41.063Z,46.53
2019-02-11T23:41:11.679Z,82.50
2019-02-11T23:43:42.181Z,63.87
2019-02-11T23:46:12.785Z,59.27
2019-02-11T23:48:43.408Z,47.30
2019-02-11T23:51:13.998Z,67.73
2019-02-11T23:53:44.578Z,74.23
2019-02-11T23:56:15.250Z,59.00
2019-02-11T23:58:45.836Z,56.57
